Hi'Ialakai — WTEY — position and weather

sailwx.info

Track history (hours):
 
Tides and Currents Weather Stations Pressure Air Temp Water Temp Dewpoint Dewpoint Depression Visibility Wind Speed Wind Dir Waves Ship Positions

Oceanographic research ship Hi'Ialakai (USA)

Detailed information on ship capabilities available from University of Delaware's Ocean Information Center.

Last reported at 2017-Feb-28 18:53 UTC. Time now 2017-Mar-25 17:41 UTC.
Position N 21°18' W 157°54'.
Warning: this ship's position is 24 days out of date.

Type: Passenger vessel. MMSI: 368926089.

Wind from 100 at 11 knots

Air temperature 24.6 ° C
Water temperature 24.8 ° C

Date/timePositionNaut miles runAvg speedWind from/ knotsBaromVisibWave heightAir tempDewpointWater temp
2017-Feb-28 18:53N 21°18' W 157°54'6 6.1 100 / 11 24.6 24.8
2017-Feb-28 17:54N 21°12' W 157°54'8 8.3 100 / 24 24.5 24.6
2017-Feb-28 16:55N 21°06' W 157°48'1312.7 100 / 14 24.5 24.4
2017-Feb-28 15:55N 21°00' W 157°36'8 8.3 060 / 14 24.5 24.7
2017-Feb-28 14:56N 20°54' W 157°30'6 5.7 100 / 14 24.6 24.6
2017-Feb-28 13:57N 20°54' W 157°24'8 8.4 120 / 13 24.3 24.8
2017-Feb-28 12:58N 20°48' W 157°30'1313.2 070 / 19 24.8 24.9
2017-Feb-28 12:00N 20°54' W 157°18'6336.3 080 / 191013.5 5.4 23.021.3-24.8
2017-Feb-28 11:59N 20°54' W 157°24'6 4.5 080 / 21 24.3 24.7
2017-Feb-28 10:45N 20°54' W 157°30'6 5.7 080 / 22 24.1 24.8
2017-Feb-28 09:46N 20°54' W 157°24'0 0.0 080 / 17 24.7 24.8
2017-Feb-28 08:47N 20°54' W 157°24'6 5.7 090 / 17 24.3 24.6
2017-Feb-28 07:48N 20°54' W 157°30'8 8.2 060 / 12 24.4 24.7
2017-Feb-28 06:48N 20°48' W 157°24'6 6.1 080 / 26 24.5 0.324.9
2017-Feb-28 05:49N 20°54' W 157°24'0 0.0 080 / 27 24.2 24.7
2017-Feb-28 04:50N 20°54' W 157°24'6 6.1 110 / 14 24.9 24.7
2017-Feb-28 03:51N 20°48' W 157°24'0 0.0 080 / 2 24.8 24.9
2017-Feb-28 02:52N 20°48' W 157°24'6 6.1 110 / 3 24.9 24.9
2017-Feb-28 01:53N 20°54' W 157°24'0 0.0 140 / 4 26.4 24.7
2017-Feb-28 00:54N 20°54' W 157°24'1314.7 100 / 13 25.7 24.7
2017-Feb-28 00:00N 21°06' W 157°18'6 5.6 1015.0 5.4 23.818.4-24.5
2017-Feb-27 22:56N 21°12' W 157°18'1616.7 060 / 18 25.8 24.2
2017-Feb-27 21:57N 21°24' W 157°06'8 8.2 100 / 21 24.5 23.9
2017-Feb-27 20:57N 21°30' W 157°00'1312.9 080 / 15 26.0 24.0
2017-Feb-27 19:58N 21°36' W 156°48'1312.9 080 / 16 25.6 24.1
2017-Feb-27 18:59N 21°42' W 156°36'1310.3 080 / 15 25.1 23.9
2017-Feb-27 17:45N 21°48' W 156°24'1312.9 080 / 16 24.1 23.8
2017-Feb-27 16:46N 21°54' W 156°12'8 8.3 080 / 15 24.0 23.7
2017-Feb-27 15:47N 22°00' W 156°06'1111.3 080 / 14 23.8 23.7
2017-Feb-27 14:48N 22°00' W 155°54'1312.9 080 / 15 23.7 23.6
2017-Feb-27 13:49N 22°06' W 155°42'1312.8 070 / 15 23.2 23.8
2017-Feb-27 12:50N 22°12' W 155°30'1315.1 070 / 14 22.9 24.1
2017-Feb-27 12:00N 22°18' W 155°18'637.0 070 / 131017.5 5.4 22.019.8-23.5
2017-Feb-27 11:51N 22°18' W 155°24'1313.3 080 / 14 22.5 23.4
2017-Feb-27 10:54N 22°24' W 155°12'1312.8 070 / 14 22.6 23.3
2017-Feb-27 09:55N 22°30' W 155°00'1312.8 070 / 14 22.6 23.5
2017-Feb-27 08:56N 22°36' W 154°48'8 8.3 070 / 14 22.6 23.4
2017-Feb-27 07:57N 22°42' W 154°42'1312.8 070 / 14 22.7 23.3
2017-Feb-27 06:58N 22°48' W 154°30'1818.2 080 / 14 22.5 24.0
2017-Feb-27 06:00N 22°54' W 154°12'6331.6 060 / 131019.8 5.4 22.620.3-24.0
2017-Feb-27 05:59N 22°54' W 154°18'1310.2 060 / 16 22.5 24.0
2017-Feb-27 04:45N 23°00' W 154°06'1312.8 070 / 17 21.7 23.6
2017-Feb-27 03:46N 23°06' W 153°54'1312.8 060 / 15 21.6 23.3
2017-Feb-27 02:47N 23°12' W 153°42'1312.8 070 / 15 21.5 23.1
2017-Feb-27 01:48N 23°18' W 153°30'8 8.3 080 / 15 20.9 23.1
2017-Feb-27 00:49N 23°24' W 153°24'1821.5 070 / 15 23.9 23.2
2017-Feb-27 00:00N 23°30' W 153°06'8 7.1 070 / 151018.8 5.4 22.018.2-23.5
2017-Feb-26 22:51N 23°36' W 153°00'1312.5 070 / 15 24.7 23.2
2017-Feb-26 21:51N 23°42' W 152°48'1312.7 070 / 14 23.8 23.4
2017-Feb-26 20:52N 23°48' W 152°36'1111.2 060 / 14 23.9 23.5
2017-Feb-26 19:53N 23°48' W 152°24'1618.4 060 / 15 23.4 23.5
2017-Feb-26 19:00N 24°00' W 152°12'881.3 060 / 131020.5 5.4 20.917.1-23.3
2017-Feb-26 18:54N 23°54' W 152°18'1312.7 060 / 13 23.3 23.3
2017-Feb-26 17:55N 24°00' W 152°06'1212.7 070 / 13 21.5 23.3
2017-Feb-26 16:56N 24°06' W 151°54'8 8.3 080 / 10 21.4 23.2
2017-Feb-26 15:57N 24°12' W 151°48'1212.7 050 / 9 21.0 22.8
2017-Feb-26 14:58N 24°18' W 151°36'1212.7 070 / 8 21.0 23.1
2017-Feb-26 13:59N 24°24' W 151°24'1212.7 080 / 7 21.2 22.9
2017-Feb-26 13:00N 24°30' W 151°12'1212.5 070 / 5 20.7 23.0
2017-Feb-26 12:00N 24°36' W 151°00'0 0.0 040 / 51019.0 5.4 19.213.1-22.8
2017-Feb-26 11:45N 24°36' W 151°00'8 8.2 060 / 4 20.8 22.8
2017-Feb-26 10:46N 24°42' W 150°54'1212.7 060 / 4 20.5 23.0
2017-Feb-26 09:47N 24°48' W 150°42'1111.1 090 / 5 20.5 21.9
2017-Feb-26 08:48N 24°48' W 150°30'8 8.2 100 / 6 20.3 22.6
2017-Feb-26 07:49N 24°54' W 150°24'1212.6 110 / 8 20.5 22.2
2017-Feb-26 06:50N 25°00' W 150°12'1720.9 050 / 6 20.4 22.2
2017-Feb-26 06:00N 25°06' W 149°54'536.2 040 / 51019.2 5.4 20.511.2-22.6
2017-Feb-26 05:51N 25°06' W 150°00'8 8.2 040 / 5 20.6 22.6
2017-Feb-26 04:52N 25°12' W 149°54'1212.6 020 / 4 20.4 22.1
2017-Feb-26 03:53N 25°18' W 149°42'1212.4 020 / 6 20.5 22.3
2017-Feb-26 02:53N 25°24' W 149°30'1212.6 010 / 5 20.5 22.9
2017-Feb-26 01:54N 25°30' W 149°18'8 8.2 010 / 3 20.4 23.1
2017-Feb-26 00:55N 25°36' W 149°12'1718.9 010 / 5 21.5 22.7
2017-Feb-26 00:00N 25°42' W 148°54'5 5.1 1017.5 5.4 19.011.4-22.8
2017-Feb-25 22:57N 25°42' W 148°48'1212.6 020 / 5 21.0 22.5
2017-Feb-25 21:58N 25°48' W 148°36'8 8.2 340 / 6 20.7 22.2
2017-Feb-25 20:59N 25°54' W 148°30'1212.6 320 / 3 20.2 21.8
2017-Feb-25 20:00N 26°00' W 148°18'1210.0 340 / 4 20.1 21.7
2017-Feb-25 18:46N 26°06' W 148°06'1212.5 330 / 6 19.9 21.3
2017-Feb-25 17:47N 26°12' W 147°54'1212.5 300 / 4 19.7 21.3
2017-Feb-25 16:48N 26°18' W 147°42'8 8.2 330 / 6 19.3 20.5
2017-Feb-25 15:49N 26°24' W 147°36'1212.5 320 / 8 19.3 20.4
2017-Feb-25 14:50N 26°30' W 147°24'1212.3 320 / 9 19.2 20.4
2017-Feb-25 13:50N 26°36' W 147°12'1110.9 330 / 3 19.2 20.3
2017-Feb-25 12:51N 26°36' W 147°00'1214.5 340 / 8 19.0 20.8
2017-Feb-25 12:00N 26°42' W 146°48'540.2 1017.0 5.4 17.011.0-20.8
2017-Feb-25 11:52N 26°42' W 146°54'1212.5 290 / 8 18.8 20.8
2017-Feb-25 10:53N 26°48' W 146°42'1212.5 330 / 11 18.7 20.7
2017-Feb-25 09:54N 26°54' W 146°30'8 8.2 290 / 8 18.7 20.8
2017-Feb-25 08:55N 27°00' W 146°24'1212.5 340 / 9 18.6 21.0
2017-Feb-25 07:56N 27°06' W 146°12'1212.5 320 / 10 18.7 21.0
2017-Feb-25 06:57N 27°12' W 146°00'1111.2 320 / 13 18.7 21.2
2017-Feb-25 06:00N 27°12' W 145°48'5160.1 320 / 131016.0 18.517.0-21.8
2017-Feb-25 05:58N 27°12' W 145°54'1212.4 320 / 10 18.6 21.8
2017-Feb-25 04:59N 27°18' W 145°42'1212.2 320 / 10 18.5 21.8
2017-Feb-25 03:59N 27°24' W 145°30'1210.0 310 / 10 18.5 21.0
2017-Feb-25 02:46N 27°30' W 145°18'1212.4 320 / 12 18.7 20.2
2017-Feb-25 01:47N 27°36' W 145°06'8 8.2 330 / 16 18.9 20.4
2017-Feb-25 00:48N 27°42' W 145°00'1721.3 320 / 17 18.9 20.9
2017-Feb-25 00:00N 27°48' W 144°42'8 6.8 320 / 201013.3 5.4 17.013.7-20.8
2017-Feb-24 22:49N 27°54' W 144°36'5 5.4 310 / 18 18.1 20.8
2017-Feb-24 21:50N 27°54' W 144°30'1212.4 310 / 15 18.3 20.4
2017-Feb-24 20:51N 28°00' W 144°18'8 8.1 320 / 18 17.8 19.3
2017-Feb-24 19:52N 28°06' W 144°12'1212.4 320 / 17 18.2 19.0
2017-Feb-24 18:53N 28°12' W 144°00'1719.2 270 / 10 17.5 19.0
2017-Feb-24 18:00N 28°18' W 143°42'552.8 280 / 131014.1 5.4 17.815.2-19.3
2017-Feb-24 17:54N 28°18' W 143°48'5 5.4 270 / 14 19.3 19.3
2017-Feb-24 16:55N 28°18' W 143°42'1212.4 260 / 10 18.7 20.8
2017-Feb-24 15:56N 28°24' W 143°30'1212.3 280 / 11 18.7 20.8
2017-Feb-24 14:57N 28°30' W 143°18'8 8.1 290 / 11 17.7 19.5
2017-Feb-24 13:58N 28°36' W 143°12'1212.3 220 / 14 20.5 19.5
2017-Feb-24 12:59N 28°42' W 143°00'1717.2 230 / 9 19.5 19.7
2017-Feb-24 12:00N 28°48' W 142°42'8478.8 1015.5 5.4 19.514.7-19.1
2017-Feb-24 11:59N 28°42' W 142°48'1613.1 210 / 10 20.4 19.1
2017-Feb-24 10:46N 28°54' W 142°36'5 5.3 210 / 8 20.5 20.2
2017-Feb-24 09:47N 28°54' W 142°30'1213.2 170 / 6 19.9 20.4
2017-Feb-24 08:52N 29°00' W 142°18'1212.3 190 / 8 19.4 20.3
2017-Feb-24 07:53N 29°06' W 142°06'1212.3 210 / 5 19.3 20.2
2017-Feb-24 06:54N 29°12' W 141°54'1213.4 220 / 5 19.4 20.5
2017-Feb-24 06:00N 29°18' W 141°42'562.8 180 / 91018.0 5.4 19.014.1-20.3
2017-Feb-24 05:55N 29°18' W 141°48'1212.1 180 / 7 18.7 20.3
2017-Feb-24 04:55N 29°24' W 141°36'1010.6 140 / 9 17.8 20.1
2017-Feb-24 03:56N 29°24' W 141°24'8 8.1 140 / 17 18.2 20.1
2017-Feb-24 02:57N 29°30' W 141°18'1212.2 110 / 19 18.0 19.8
2017-Feb-24 01:58N 29°36' W 141°06'1212.2 130 / 25 18.8 20.1
2017-Feb-24 00:59N 29°42' W 140°54'1717.0 140 / 24 19.1 20.1
2017-Feb-24 00:00N 29°48' W 140°36'8 6.5 120 / 181020.5 5.4 18.013.0-20.1
2017-Feb-23 22:47N 29°54' W 140°30'8 7.9 110 / 18 19.9 20.0
2017-Feb-23 21:47N 30°00' W 140°24'1212.2 120 / 18 19.5 19.9
2017-Feb-23 20:48N 30°06' W 140°12'5 5.3 110 / 17 19.5 20.1
2017-Feb-23 19:49N 30°06' W 140°06'1212.2 100 / 15 19.6 19.8
2017-Feb-23 18:50N 30°12' W 139°54'1720.0 110 / 14 19.1 19.8
2017-Feb-23 18:00N 30°18' W 139°36'534.5 100 / 131026.9 5.4 16.412.4-19.3
2017-Feb-23 17:51N 30°18' W 139°42'1212.2 090 / 13 18.5 19.2
2017-Feb-23 16:52N 30°24' W 139°30'8 8.1 090 / 12 17.3 18.9
2017-Feb-23 15:53N 30°30' W 139°24'1212.2 100 / 13 16.7 18.1
2017-Feb-23 14:54N 30°36' W 139°12'1010.5 110 / 10 16.8 18.1
2017-Feb-23 13:55N 30°36' W 139°00'1211.9 100 / 9 16.6 18.9
2017-Feb-23 12:55N 30°42' W 138°48'1718.1 110 / 14 16.6 18.7
2017-Feb-23 12:00N 30°48' W 138°30'10154.6 070 / 141028.5 5.4 14.511.0-18.8
2017-Feb-23 11:56N 30°48' W 138°42'1212.1 070 / 14 15.8 18.7
2017-Feb-23 10:57N 30°54' W 138°30'1212.1 130 / 17 16.1 18.7
2017-Feb-23 09:58N 31°00' W 138°18'1212.1 060 / 14 16.0 17.9
2017-Feb-23 08:59N 31°06' W 138°06'1212.1 070 / 17 15.9 18.0
2017-Feb-23 08:00N 31°12' W 137°54'12 9.6 070 / 14 16.0 18.0
2017-Feb-23 06:46N 31°18' W 137°42'1212.1 060 / 13 15.5 18.1
2017-Feb-23 05:47N 31°24' W 137°30'5 5.2 040 / 12 14.6 18.0
2017-Feb-23 04:48N 31°24' W 137°24'1212.1 040 / 13 14.7 18.4
2017-Feb-23 03:49N 31°30' W 137°12'1212.1 090 / 12 14.9 17.9
2017-Feb-23 02:50N 31°36' W 137°00'1212.0 080 / 15 14.4 17.9
2017-Feb-23 01:51N 31°42' W 136°48'1211.8 060 / 14 15.8 17.9
2017-Feb-23 00:51N 31°48' W 136°36'1213.9 060 / 13 17.4 17.9
2017-Feb-23 00:00N 31°54' W 136°24'8 7.0 060 / 91031.0 5.4 13.5 9.9-18.1
2017-Feb-22 22:53N 32°00' W 136°18'28 9.5 050 / 11 14.2 17.9
2017-Feb-22 19:56N 32°12' W 135°48'1212.0 040 / 14 15.3 17.8
2017-Feb-22 18:57N 32°18' W 135°36'1617.2 050 / 13 15.5 16.2
2017-Feb-22 18:00N 32°24' W 135°18'5152.0 050 / 131032.2 5.4 12.9 7.2-17.1
2017-Feb-22 17:58N 32°24' W 135°24'1211.8 050 / 13 15.5 17.1
2017-Feb-22 16:58N 32°30' W 135°12'5 5.1 020 / 15 14.3 17.1
2017-Feb-22 15:59N 32°30' W 135°06'1212.0 040 / 14 14.2 17.1
2017-Feb-22 15:00N 32°36' W 134°54'12 9.5 020 / 14 13.8 17.2
2017-Feb-22 13:46N 32°42' W 134°42'1211.9 010 / 12 13.1 17.3
2017-Feb-22 12:47N 32°48' W 134°30'1215.0 350 / 19 13.5 17.1
2017-Feb-22 12:00N 32°54' W 134°18'525.2 350 / 161031.0 5.4 12.0 6.1-17.2
2017-Feb-22 11:48N 32°54' W 134°24'1212.3 350 / 19 13.7 17.2
2017-Feb-22 10:51N 33°00' W 134°12'5 5.1 350 / 20 13.7 17.1
2017-Feb-22 09:52N 33°00' W 134°06'1211.9 340 / 18 13.3 17.0
2017-Feb-22 08:53N 33°06' W 133°54'1211.9 340 / 24 13.6 17.0
2017-Feb-22 07:54N 33°12' W 133°42'8 8.0 330 / 25 14.3 17.0
2017-Feb-22 06:55N 33°18' W 133°36'1010.2 330 / 24 14.6 16.6
2017-Feb-22 05:56N 33°18' W 133°24'8 8.0 330 / 25 14.5 16.7
2017-Feb-22 04:57N 33°24' W 133°18'1211.9 330 / 25 14.7 16.9
2017-Feb-22 03:58N 33°30' W 133°06'1211.9 320 / 19 14.9 16.7
2017-Feb-22 02:59N 33°36' W 132°54'5 5.0 230 / 14 14.8 16.4
2017-Feb-22 01:59N 33°36' W 132°48'1211.9 280 / 15 13.9 16.6
2017-Feb-22 01:00N 33°42' W 132°36'1616.1 220 / 10 15.2 16.1
2017-Feb-22 00:00N 33°48' W 132°18'8 6.4 220 / 91026.0 5.4 13.2 7.6-15.9
2017-Feb-21 22:47N 33°54' W 132°12'8 7.9 300 / 5 14.8 15.6
2017-Feb-21 21:48N 34°00' W 132°06'1211.8 300 / 5 14.4 16.1
2017-Feb-21 20:49N 34°06' W 131°54'1010.1 340 / 8 14.0 16.0
2017-Feb-21 19:50N 34°06' W 131°42'8 7.9 340 / 14 13.6 16.1
2017-Feb-21 18:51N 34°12' W 131°36'1618.9 320 / 9 13.3 16.1
2017-Feb-21 18:00N 34°18' W 131°18'537.2 330 / 131026.2 5.4 11.9 6.7-16.4
2017-Feb-21 17:52N 34°18' W 131°24'8 7.8 340 / 15 13.5 16.4
2017-Feb-21 16:52N 34°24' W 131°18'1010.1 330 / 17 12.5
2017-Feb-21 15:53N 34°24' W 131°06'1211.8 330 / 19 12.4
2017-Feb-21 14:54N 34°30' W 130°54'8 7.9 330 / 18 12.1
2017-Feb-21 13:55N 34°36' W 130°48'1211.7 310 / 13 12.8
2017-Feb-21 12:56N 34°42' W 130°36'1515.9 320 / 17 12.3
2017-Feb-21 12:00N 34°42' W 130°18'598.7 290 / 131020.0 5.4 12.1 7.1
2017-Feb-21 11:57N 34°42' W 130°24'8 7.9 290 / 13 13.6
2017-Feb-21 10:58N 34°48' W 130°18'1211.7 310 / 13 13.4
2017-Feb-21 09:59N 34°54' W 130°06'1211.7 260 / 14 11.9
2017-Feb-21 09:00N 35°00' W 129°54'8 7.8 310 / 16 14.1
2017-Feb-21 08:00N 35°06' W 129°48'10 8.3 290 / 15 14.7
2017-Feb-21 06:49N 35°06' W 129°36'1214.1 280 / 16 14.9
2017-Feb-21 06:00N 35°12' W 129°24'0 0.0 280 / 191015.8 5.4 13.5 8.9
2017-Feb-21 05:50N 35°12' W 129°24'8 7.9 280 / 17 14.7
2017-Feb-21 04:51N 35°18' W 129°18'5 4.9 290 / 20 14.9
2017-Feb-21 03:51N 35°18' W 129°12'1111.5 280 / 21 14.7
2017-Feb-21 02:51N 35°24' W 129°00'5 5.0 280 / 24 14.5
2017-Feb-21 01:52N 35°24' W 128°54'8 7.9 260 / 23 15.3
2017-Feb-21 00:53N 35°30' W 128°48'5 5.5 260 / 26 15.2
2017-Feb-21 00:00N 35°30' W 128°42'6 5.5 240 / 401005.8 5.4 13.510.9
2017-Feb-20 22:55N 35°36' W 128°42'10 9.9 220 / 25 16.7
2017-Feb-20 21:56N 35°36' W 128°30'8 7.9 220 / 21 15.1
2017-Feb-20 20:57N 35°42' W 128°24'5 5.0 230 / 19 14.2
2017-Feb-20 19:58N 35°42' W 128°18'8 7.9 190 / 20 15.4
2017-Feb-20 18:59N 35°48' W 128°12'1111.4 180 / 23 15.0
2017-Feb-20 17:59N 35°54' W 128°00'5 3.9 200 / 21 15.4
2017-Feb-20 16:45N 35°54' W 127°54'1312.9 190 / 18 15.6
2017-Feb-20 15:45N 36°06' W 127°48'8 7.8 200 / 16 15.7
2017-Feb-20 14:46N 36°12' W 127°42'8 7.8 190 / 17 15.3
2017-Feb-20 13:47N 36°18' W 127°36'8 7.8 190 / 20 15.3
2017-Feb-20 12:48N 36°24' W 127°30'1114.2 200 / 17 15.2
2017-Feb-20 12:00N 36°30' W 127°18'526.3 210 / 191006.0 5.4 14.013.2
2017-Feb-20 11:49N 36°30' W 127°24'8 7.8 210 / 16 15.3
2017-Feb-20 10:50N 36°36' W 127°18'6 6.1 220 / 17 15.5
2017-Feb-20 09:51N 36°42' W 127°18'1313.1 200 / 20 15.4
2017-Feb-20 08:52N 36°54' W 127°12'8 7.7 230 / 20 15.5
2017-Feb-20 07:52N 37°00' W 127°06'8 7.8 230 / 17 15.7
2017-Feb-20 06:53N 37°06' W 127°00'8 7.8 230 / 20 15.8 12.3
2017-Feb-20 05:54N 37°12' W 126°54'6 6.1 200 / 21 15.5 12.4
2017-Feb-20 04:55N 37°18' W 126°54'8 7.8 200 / 18 15.2 12.5
2017-Feb-20 03:56N 37°24' W 126°48'1313.1 160 / 22 14.1 12.4
2017-Feb-20 02:57N 37°36' W 126°42'8 7.8 150 / 20 12.6 12.2
2017-Feb-20 01:58N 37°42' W 126°36'1112.3 140 / 13 13.0 12.3
2017-Feb-20 01:04N 37°52' W 126°31'447.2
2017-Feb-20 00:59N 37°48' W 126°30'1515.5 160 / 10 13.2 12.4
2017-Feb-20 00:00N 38°00' W 126°18'1310.6 210 / 91004.9 5.4 11.911.0-12.4
2017-Feb-19 22:47N 38°12' W 126°24'8 7.8 250 / 7 13.6
2017-Feb-19 21:48N 38°18' W 126°18'1212.0 280 / 9 13.2
2017-Feb-19 20:48N 38°30' W 126°18'1212.2 290 / 9 13.6
2017-Feb-19 19:49N 38°42' W 126°18'1212.2 300 / 9 13.2
2017-Feb-19 18:50N 38°54' W 126°18'6 6.1 300 / 9 13.1
2017-Feb-19 17:51N 39°00' W 126°18'1212.2 290 / 8 12.8
2017-Feb-19 16:52N 39°12' W 126°18'8 7.7 290 / 2 11.9
2017-Feb-19 15:53N 39°18' W 126°12'1212.2 250 / 9 11.3
2017-Feb-19 14:54N 39°30' W 126°12'1212.2 250 / 11 12.1
2017-Feb-19 13:55N 39°42' W 126°12'6 6.0 240 / 11 12.3
2017-Feb-19 12:55N 39°48' W 126°12'8 8.3 230 / 11 12.1
2017-Feb-19 12:00N 39°54' W 126°06'569.0 240 / 151001.0 5.4 10.610.2-11.5
2017-Feb-19 11:56N 39°54' W 126°12'1212.2 240 / 13 12.0
2017-Feb-19 10:57N 40°06' W 126°12'8 7.7 240 / 18 12.2
2017-Feb-19 09:58N 40°12' W 126°06'1212.2 250 / 14 12.4
2017-Feb-19 08:59N 40°24' W 126°06'6 6.1 240 / 14 12.2
2017-Feb-19 08:00N 40°30' W 126°06'12 9.6 240 / 14 12.1
2017-Feb-19 06:45N 40°42' W 126°06'1212.2 240 / 16 11.6
2017-Feb-19 05:46N 40°54' W 126°06'6 6.1 180 / 10 10.8
2017-Feb-19 04:47N 41°00' W 126°06'1313.0 180 / 23 10.5
2017-Feb-19 03:48N 41°12' W 126°00'6 6.0 180 / 21 9.8
2017-Feb-19 02:48N 41°18' W 126°00'1212.2 180 / 20 9.4
2017-Feb-19 01:49N 41°30' W 126°00'1212.2 190 / 17 9.3
2017-Feb-19 00:50N 41°42' W 126°00'7 9.0 220 / 17 8.9
2017-Feb-19 00:00N 41°48' W 125°54'1210.6 230 / 20999.9 2.2 7.9 3.7-11.3
2017-Feb-18 22:52N 42°00' W 125°54'6 6.1 250 / 9 9.5
2017-Feb-18 21:53N 42°06' W 125°54'1212.2 260 / 3 9.6
2017-Feb-18 20:54N 42°18' W 125°54'1212.2 070 / 2 10.0
2017-Feb-18 19:55N 42°30' W 125°54'1212.2 260 / 3 9.5
2017-Feb-18 18:56N 42°42' W 125°54'   320 / 10 10.5
Track history (hours):
 
Tides and Currents Weather Stations Pressure Air Temp Water Temp Dewpoint Dewpoint Depression Visibility Wind Speed Wind Dir Waves Ship Positions

Oceanographic research ship Hi'Ialakai (USA)

Detailed information on ship capabilities available from University of Delaware's Ocean Information Center.

Last reported at 2017-Feb-28 18:53 UTC. Time now 2017-Mar-25 17:41 UTC.
Position N 21°18' W 157°54'.
Warning: this ship's position is 24 days out of date.

Type: Passenger vessel. MMSI: 368926089.

Wind from 100 at 11 knots

Air temperature 24.6 ° C
Water temperature 24.8 ° C

Date/timePositionNaut miles runAvg speedWind from/ knotsBaromVisibWave heightAir tempDewpointWater temp
2017-Feb-28 18:53N 21°18' W 157°54'6 6.1 100 / 11 24.6 24.8
2017-Feb-28 17:54N 21°12' W 157°54'8 8.3 100 / 24 24.5 24.6
2017-Feb-28 16:55N 21°06' W 157°48'1312.7 100 / 14 24.5 24.4
2017-Feb-28 15:55N 21°00' W 157°36'8 8.3 060 / 14 24.5 24.7
2017-Feb-28 14:56N 20°54' W 157°30'6 5.7 100 / 14 24.6 24.6
2017-Feb-28 13:57N 20°54' W 157°24'8 8.4 120 / 13 24.3 24.8
2017-Feb-28 12:58N 20°48' W 157°30'1313.2 070 / 19 24.8 24.9
2017-Feb-28 12:00N 20°54' W 157°18'6336.3 080 / 191013.5 5.4 23.021.3-24.8
2017-Feb-28 11:59N 20°54' W 157°24'6 4.5 080 / 21 24.3 24.7
2017-Feb-28 10:45N 20°54' W 157°30'6 5.7 080 / 22 24.1 24.8
2017-Feb-28 09:46N 20°54' W 157°24'0 0.0 080 / 17 24.7 24.8
2017-Feb-28 08:47N 20°54' W 157°24'6 5.7 090 / 17 24.3 24.6
2017-Feb-28 07:48N 20°54' W 157°30'8 8.2 060 / 12 24.4 24.7
2017-Feb-28 06:48N 20°48' W 157°24'6 6.1 080 / 26 24.5 0.324.9
2017-Feb-28 05:49N 20°54' W 157°24'0 0.0 080 / 27 24.2 24.7
2017-Feb-28 04:50N 20°54' W 157°24'6 6.1 110 / 14 24.9 24.7
2017-Feb-28 03:51N 20°48' W 157°24'0 0.0 080 / 2 24.8 24.9
2017-Feb-28 02:52N 20°48' W 157°24'6 6.1 110 / 3 24.9 24.9
2017-Feb-28 01:53N 20°54' W 157°24'0 0.0 140 / 4 26.4 24.7
2017-Feb-28 00:54N 20°54' W 157°24'1314.7 100 / 13 25.7 24.7
2017-Feb-28 00:00N 21°06' W 157°18'6 5.6 1015.0 5.4 23.818.4-24.5
2017-Feb-27 22:56N 21°12' W 157°18'1616.7 060 / 18 25.8 24.2
2017-Feb-27 21:57N 21°24' W 157°06'8 8.2 100 / 21 24.5 23.9
2017-Feb-27 20:57N 21°30' W 157°00'1312.9 080 / 15 26.0 24.0
2017-Feb-27 19:58N 21°36' W 156°48'1312.9 080 / 16 25.6 24.1
2017-Feb-27 18:59N 21°42' W 156°36'1310.3 080 / 15 25.1 23.9
2017-Feb-27 17:45N 21°48' W 156°24'1312.9 080 / 16 24.1 23.8
2017-Feb-27 16:46N 21°54' W 156°12'8 8.3 080 / 15 24.0 23.7
2017-Feb-27 15:47N 22°00' W 156°06'1111.3 080 / 14 23.8 23.7
2017-Feb-27 14:48N 22°00' W 155°54'1312.9 080 / 15 23.7 23.6
2017-Feb-27 13:49N 22°06' W 155°42'1312.8 070 / 15 23.2 23.8
2017-Feb-27 12:50N 22°12' W 155°30'1315.1 070 / 14 22.9 24.1
2017-Feb-27 12:00N 22°18' W 155°18'637.0 070 / 131017.5 5.4 22.019.8-23.5
2017-Feb-27 11:51N 22°18' W 155°24'1313.3 080 / 14 22.5 23.4
2017-Feb-27 10:54N 22°24' W 155°12'1312.8 070 / 14 22.6 23.3
2017-Feb-27 09:55N 22°30' W 155°00'1312.8 070 / 14 22.6 23.5
2017-Feb-27 08:56N 22°36' W 154°48'8 8.3 070 / 14 22.6 23.4
2017-Feb-27 07:57N 22°42' W 154°42'1312.8 070 / 14 22.7 23.3
2017-Feb-27 06:58N 22°48' W 154°30'1818.2 080 / 14 22.5 24.0
2017-Feb-27 06:00N 22°54' W 154°12'6331.6 060 / 131019.8 5.4 22.620.3-24.0
2017-Feb-27 05:59N 22°54' W 154°18'1310.2 060 / 16 22.5 24.0
2017-Feb-27 04:45N 23°00' W 154°06'1312.8 070 / 17 21.7 23.6
2017-Feb-27 03:46N 23°06' W 153°54'1312.8 060 / 15 21.6 23.3
2017-Feb-27 02:47N 23°12' W 153°42'1312.8 070 / 15 21.5 23.1
2017-Feb-27 01:48N 23°18' W 153°30'8 8.3 080 / 15 20.9 23.1
2017-Feb-27 00:49N 23°24' W 153°24'1821.5 070 / 15 23.9 23.2
2017-Feb-27 00:00N 23°30' W 153°06'8 7.1 070 / 151018.8 5.4 22.018.2-23.5
2017-Feb-26 22:51N 23°36' W 153°00'1312.5 070 / 15 24.7 23.2
2017-Feb-26 21:51N 23°42' W 152°48'1312.7 070 / 14 23.8 23.4
2017-Feb-26 20:52N 23°48' W 152°36'1111.2 060 / 14 23.9 23.5
2017-Feb-26 19:53N 23°48' W 152°24'1618.4 060 / 15 23.4 23.5
2017-Feb-26 19:00N 24°00' W 152°12'881.3 060 / 131020.5 5.4 20.917.1-23.3
2017-Feb-26 18:54N 23°54' W 152°18'1312.7 060 / 13 23.3 23.3
2017-Feb-26 17:55N 24°00' W 152°06'1212.7 070 / 13 21.5 23.3
2017-Feb-26 16:56N 24°06' W 151°54'8 8.3 080 / 10 21.4 23.2
2017-Feb-26 15:57N 24°12' W 151°48'1212.7 050 / 9 21.0 22.8
2017-Feb-26 14:58N 24°18' W 151°36'1212.7 070 / 8 21.0 23.1
2017-Feb-26 13:59N 24°24' W 151°24'1212.7 080 / 7 21.2 22.9
2017-Feb-26 13:00N 24°30' W 151°12'1212.5 070 / 5 20.7 23.0
2017-Feb-26 12:00N 24°36' W 151°00'0 0.0 040 / 51019.0 5.4 19.213.1-22.8
2017-Feb-26 11:45N 24°36' W 151°00'8 8.2 060 / 4 20.8 22.8
2017-Feb-26 10:46N 24°42' W 150°54'1212.7 060 / 4 20.5 23.0
2017-Feb-26 09:47N 24°48' W 150°42'1111.1 090 / 5 20.5 21.9
2017-Feb-26 08:48N 24°48' W 150°30'8 8.2 100 / 6 20.3 22.6
2017-Feb-26 07:49N 24°54' W 150°24'1212.6 110 / 8 20.5 22.2
2017-Feb-26 06:50N 25°00' W 150°12'1720.9 050 / 6 20.4 22.2
2017-Feb-26 06:00N 25°06' W 149°54'536.2 040 / 51019.2 5.4 20.511.2-22.6
2017-Feb-26 05:51N 25°06' W 150°00'8 8.2 040 / 5 20.6 22.6
2017-Feb-26 04:52N 25°12' W 149°54'1212.6 020 / 4 20.4 22.1
2017-Feb-26 03:53N 25°18' W 149°42'1212.4 020 / 6 20.5 22.3
2017-Feb-26 02:53N 25°24' W 149°30'1212.6 010 / 5 20.5 22.9
2017-Feb-26 01:54N 25°30' W 149°18'8 8.2 010 / 3 20.4 23.1
2017-Feb-26 00:55N 25°36' W 149°12'1718.9 010 / 5 21.5 22.7
2017-Feb-26 00:00N 25°42' W 148°54'5 5.1 1017.5 5.4 19.011.4-22.8
2017-Feb-25 22:57N 25°42' W 148°48'1212.6 020 / 5 21.0 22.5
2017-Feb-25 21:58N 25°48' W 148°36'8 8.2 340 / 6 20.7 22.2
2017-Feb-25 20:59N 25°54' W 148°30'1212.6 320 / 3 20.2 21.8
2017-Feb-25 20:00N 26°00' W 148°18'1210.0 340 / 4 20.1 21.7
2017-Feb-25 18:46N 26°06' W 148°06'1212.5 330 / 6 19.9 21.3
2017-Feb-25 17:47N 26°12' W 147°54'1212.5 300 / 4 19.7 21.3
2017-Feb-25 16:48N 26°18' W 147°42'8 8.2 330 / 6 19.3 20.5
2017-Feb-25 15:49N 26°24' W 147°36'1212.5 320 / 8 19.3 20.4
2017-Feb-25 14:50N 26°30' W 147°24'1212.3 320 / 9 19.2 20.4
2017-Feb-25 13:50N 26°36' W 147°12'1110.9 330 / 3 19.2 20.3
2017-Feb-25 12:51N 26°36' W 147°00'1214.5 340 / 8 19.0 20.8
2017-Feb-25 12:00N 26°42' W 146°48'540.2 1017.0 5.4 17.011.0-20.8
2017-Feb-25 11:52N 26°42' W 146°54'1212.5 290 / 8 18.8 20.8
2017-Feb-25 10:53N 26°48' W 146°42'1212.5 330 / 11 18.7 20.7
2017-Feb-25 09:54N 26°54' W 146°30'8 8.2 290 / 8 18.7 20.8
2017-Feb-25 08:55N 27°00' W 146°24'1212.5 340 / 9 18.6 21.0
2017-Feb-25 07:56N 27°06' W 146°12'1212.5 320 / 10 18.7 21.0
2017-Feb-25 06:57N 27°12' W 146°00'1111.2 320 / 13 18.7 21.2
2017-Feb-25 06:00N 27°12' W 145°48'5160.1 320 / 131016.0 18.517.0-21.8
2017-Feb-25 05:58N 27°12' W 145°54'1212.4 320 / 10 18.6 21.8
2017-Feb-25 04:59N 27°18' W 145°42'1212.2 320 / 10 18.5 21.8
2017-Feb-25 03:59N 27°24' W 145°30'1210.0 310 / 10 18.5 21.0
2017-Feb-25 02:46N 27°30' W 145°18'1212.4 320 / 12 18.7 20.2
2017-Feb-25 01:47N 27°36' W 145°06'8 8.2 330 / 16 18.9 20.4
2017-Feb-25 00:48N 27°42' W 145°00'1721.3 320 / 17 18.9 20.9
2017-Feb-25 00:00N 27°48' W 144°42'8 6.8 320 / 201013.3 5.4 17.013.7-20.8
2017-Feb-24 22:49N 27°54' W 144°36'5 5.4 310 / 18 18.1 20.8
2017-Feb-24 21:50N 27°54' W 144°30'1212.4 310 / 15 18.3 20.4
2017-Feb-24 20:51N 28°00' W 144°18'8 8.1 320 / 18 17.8 19.3
2017-Feb-24 19:52N 28°06' W 144°12'1212.4 320 / 17 18.2 19.0
2017-Feb-24 18:53N 28°12' W 144°00'1719.2 270 / 10 17.5 19.0
2017-Feb-24 18:00N 28°18' W 143°42'552.8 280 / 131014.1 5.4 17.815.2-19.3
2017-Feb-24 17:54N 28°18' W 143°48'5 5.4 270 / 14 19.3 19.3
2017-Feb-24 16:55N 28°18' W 143°42'1212.4 260 / 10 18.7 20.8
2017-Feb-24 15:56N 28°24' W 143°30'1212.3 280 / 11 18.7 20.8
2017-Feb-24 14:57N 28°30' W 143°18'8 8.1 290 / 11 17.7 19.5
2017-Feb-24 13:58N 28°36' W 143°12'1212.3 220 / 14 20.5 19.5
2017-Feb-24 12:59N 28°42' W 143°00'1717.2 230 / 9 19.5 19.7
2017-Feb-24 12:00N 28°48' W 142°42'8478.8 1015.5 5.4 19.514.7-19.1
2017-Feb-24 11:59N 28°42' W 142°48'1613.1 210 / 10 20.4 19.1
2017-Feb-24 10:46N 28°54' W 142°36'5 5.3 210 / 8 20.5 20.2
2017-Feb-24 09:47N 28°54' W 142°30'1213.2 170 / 6 19.9 20.4
2017-Feb-24 08:52N 29°00' W 142°18'1212.3 190 / 8 19.4 20.3
2017-Feb-24 07:53N 29°06' W 142°06'1212.3 210 / 5 19.3 20.2
2017-Feb-24 06:54N 29°12' W 141°54'1213.4 220 / 5 19.4 20.5
2017-Feb-24 06:00N 29°18' W 141°42'562.8 180 / 91018.0 5.4 19.014.1-20.3
2017-Feb-24 05:55N 29°18' W 141°48'1212.1 180 / 7 18.7 20.3
2017-Feb-24 04:55N 29°24' W 141°36'1010.6 140 / 9 17.8 20.1
2017-Feb-24 03:56N 29°24' W 141°24'8 8.1 140 / 17 18.2 20.1
2017-Feb-24 02:57N 29°30' W 141°18'1212.2 110 / 19 18.0 19.8
2017-Feb-24 01:58N 29°36' W 141°06'1212.2 130 / 25 18.8 20.1
2017-Feb-24 00:59N 29°42' W 140°54'1717.0 140 / 24 19.1 20.1
2017-Feb-24 00:00N 29°48' W 140°36'8 6.5 120 / 181020.5 5.4 18.013.0-20.1
2017-Feb-23 22:47N 29°54' W 140°30'8 7.9 110 / 18 19.9 20.0
2017-Feb-23 21:47N 30°00' W 140°24'1212.2 120 / 18 19.5 19.9
2017-Feb-23 20:48N 30°06' W 140°12'5 5.3 110 / 17 19.5 20.1
2017-Feb-23 19:49N 30°06' W 140°06'1212.2 100 / 15 19.6 19.8
2017-Feb-23 18:50N 30°12' W 139°54'1720.0 110 / 14 19.1 19.8
2017-Feb-23 18:00N 30°18' W 139°36'534.5 100 / 131026.9 5.4 16.412.4-19.3
2017-Feb-23 17:51N 30°18' W 139°42'1212.2 090 / 13 18.5 19.2
2017-Feb-23 16:52N 30°24' W 139°30'8 8.1 090 / 12 17.3 18.9
2017-Feb-23 15:53N 30°30' W 139°24'1212.2 100 / 13 16.7 18.1
2017-Feb-23 14:54N 30°36' W 139°12'1010.5 110 / 10 16.8 18.1
2017-Feb-23 13:55N 30°36' W 139°00'1211.9 100 / 9 16.6 18.9
2017-Feb-23 12:55N 30°42' W 138°48'1718.1 110 / 14 16.6 18.7
2017-Feb-23 12:00N 30°48' W 138°30'10154.6 070 / 141028.5 5.4 14.511.0-18.8
2017-Feb-23 11:56N 30°48' W 138°42'1212.1 070 / 14 15.8 18.7
2017-Feb-23 10:57N 30°54' W 138°30'1212.1 130 / 17 16.1 18.7
2017-Feb-23 09:58N 31°00' W 138°18'1212.1 060 / 14 16.0 17.9
2017-Feb-23 08:59N 31°06' W 138°06'1212.1 070 / 17 15.9 18.0
2017-Feb-23 08:00N 31°12' W 137°54'12 9.6 070 / 14 16.0 18.0
2017-Feb-23 06:46N 31°18' W 137°42'1212.1 060 / 13 15.5 18.1
2017-Feb-23 05:47N 31°24' W 137°30'5 5.2 040 / 12 14.6 18.0
2017-Feb-23 04:48N 31°24' W 137°24'1212.1 040 / 13 14.7 18.4
2017-Feb-23 03:49N 31°30' W 137°12'1212.1 090 / 12 14.9 17.9
2017-Feb-23 02:50N 31°36' W 137°00'1212.0 080 / 15 14.4 17.9
2017-Feb-23 01:51N 31°42' W 136°48'1211.8 060 / 14 15.8 17.9
2017-Feb-23 00:51N 31°48' W 136°36'1213.9 060 / 13 17.4 17.9
2017-Feb-23 00:00N 31°54' W 136°24'8 7.0 060 / 91031.0 5.4 13.5 9.9-18.1
2017-Feb-22 22:53N 32°00' W 136°18'28 9.5 050 / 11 14.2 17.9
2017-Feb-22 19:56N 32°12' W 135°48'1212.0 040 / 14 15.3 17.8
2017-Feb-22 18:57N 32°18' W 135°36'1617.2 050 / 13 15.5 16.2
2017-Feb-22 18:00N 32°24' W 135°18'5152.0 050 / 131032.2 5.4 12.9 7.2-17.1
2017-Feb-22 17:58N 32°24' W 135°24'1211.8 050 / 13 15.5 17.1
2017-Feb-22 16:58N 32°30' W 135°12'5 5.1 020 / 15 14.3 17.1
2017-Feb-22 15:59N 32°30' W 135°06'1212.0 040 / 14 14.2 17.1
2017-Feb-22 15:00N 32°36' W 134°54'12 9.5 020 / 14 13.8 17.2
2017-Feb-22 13:46N 32°42' W 134°42'1211.9 010 / 12 13.1 17.3
2017-Feb-22 12:47N 32°48' W 134°30'1215.0 350 / 19 13.5 17.1
2017-Feb-22 12:00N 32°54' W 134°18'525.2 350 / 161031.0 5.4 12.0 6.1-17.2
2017-Feb-22 11:48N 32°54' W 134°24'1212.3 350 / 19 13.7 17.2
2017-Feb-22 10:51N 33°00' W 134°12'5 5.1 350 / 20 13.7 17.1
2017-Feb-22 09:52N 33°00' W 134°06'1211.9 340 / 18 13.3 17.0
2017-Feb-22 08:53N 33°06' W 133°54'1211.9 340 / 24 13.6 17.0
2017-Feb-22 07:54N 33°12' W 133°42'8 8.0 330 / 25 14.3 17.0
2017-Feb-22 06:55N 33°18' W 133°36'1010.2 330 / 24 14.6 16.6
2017-Feb-22 05:56N 33°18' W 133°24'8 8.0 330 / 25 14.5 16.7
2017-Feb-22 04:57N 33°24' W 133°18'1211.9 330 / 25 14.7 16.9
2017-Feb-22 03:58N 33°30' W 133°06'1211.9 320 / 19 14.9 16.7
2017-Feb-22 02:59N 33°36' W 132°54'5 5.0 230 / 14 14.8 16.4
2017-Feb-22 01:59N 33°36' W 132°48'1211.9 280 / 15 13.9 16.6
2017-Feb-22 01:00N 33°42' W 132°36'1616.1 220 / 10 15.2 16.1
2017-Feb-22 00:00N 33°48' W 132°18'8 6.4 220 / 91026.0 5.4 13.2 7.6-15.9
2017-Feb-21 22:47N 33°54' W 132°12'8 7.9 300 / 5 14.8 15.6
2017-Feb-21 21:48N 34°00' W 132°06'1211.8 300 / 5 14.4 16.1
2017-Feb-21 20:49N 34°06' W 131°54'1010.1 340 / 8 14.0 16.0
2017-Feb-21 19:50N 34°06' W 131°42'8 7.9 340 / 14 13.6 16.1
2017-Feb-21 18:51N 34°12' W 131°36'1618.9 320 / 9 13.3 16.1
2017-Feb-21 18:00N 34°18' W 131°18'537.2 330 / 131026.2 5.4 11.9 6.7-16.4
2017-Feb-21 17:52N 34°18' W 131°24'8 7.8 340 / 15 13.5 16.4
2017-Feb-21 16:52N 34°24' W 131°18'1010.1 330 / 17 12.5
2017-Feb-21 15:53N 34°24' W 131°06'1211.8 330 / 19 12.4
2017-Feb-21 14:54N 34°30' W 130°54'8 7.9 330 / 18 12.1
2017-Feb-21 13:55N 34°36' W 130°48'1211.7 310 / 13 12.8
2017-Feb-21 12:56N 34°42' W 130°36'1515.9 320 / 17 12.3
2017-Feb-21 12:00N 34°42' W 130°18'598.7 290 / 131020.0 5.4 12.1 7.1
2017-Feb-21 11:57N 34°42' W 130°24'8 7.9 290 / 13 13.6
2017-Feb-21 10:58N 34°48' W 130°18'1211.7 310 / 13 13.4
2017-Feb-21 09:59N 34°54' W 130°06'1211.7 260 / 14 11.9
2017-Feb-21 09:00N 35°00' W 129°54'8 7.8 310 / 16 14.1
2017-Feb-21 08:00N 35°06' W 129°48'10 8.3 290 / 15 14.7
2017-Feb-21 06:49N 35°06' W 129°36'1214.1 280 / 16 14.9
2017-Feb-21 06:00N 35°12' W 129°24'0 0.0 280 / 191015.8 5.4 13.5 8.9
2017-Feb-21 05:50N 35°12' W 129°24'8 7.9 280 / 17 14.7
2017-Feb-21 04:51N 35°18' W 129°18'5 4.9 290 / 20 14.9
2017-Feb-21 03:51N 35°18' W 129°12'1111.5 280 / 21 14.7
2017-Feb-21 02:51N 35°24' W 129°00'5 5.0 280 / 24 14.5
2017-Feb-21 01:52N 35°24' W 128°54'8 7.9 260 / 23 15.3
2017-Feb-21 00:53N 35°30' W 128°48'5 5.5 260 / 26 15.2
2017-Feb-21 00:00N 35°30' W 128°42'6 5.5 240 / 401005.8 5.4 13.510.9
2017-Feb-20 22:55N 35°36' W 128°42'10 9.9 220 / 25 16.7
2017-Feb-20 21:56N 35°36' W 128°30'8 7.9 220 / 21 15.1
2017-Feb-20 20:57N 35°42' W 128°24'5 5.0 230 / 19 14.2
2017-Feb-20 19:58N 35°42' W 128°18'8 7.9 190 / 20 15.4
2017-Feb-20 18:59N 35°48' W 128°12'1111.4 180 / 23 15.0
2017-Feb-20 17:59N 35°54' W 128°00'5 3.9 200 / 21 15.4
2017-Feb-20 16:45N 35°54' W 127°54'1312.9 190 / 18 15.6
2017-Feb-20 15:45N 36°06' W 127°48'8 7.8 200 / 16 15.7
2017-Feb-20 14:46N 36°12' W 127°42'8 7.8 190 / 17 15.3
2017-Feb-20 13:47N 36°18' W 127°36'8 7.8 190 / 20 15.3
2017-Feb-20 12:48N 36°24' W 127°30'1114.2 200 / 17 15.2
2017-Feb-20 12:00N 36°30' W 127°18'526.3 210 / 191006.0 5.4 14.013.2
2017-Feb-20 11:49N 36°30' W 127°24'8 7.8 210 / 16 15.3
2017-Feb-20 10:50N 36°36' W 127°18'6 6.1 220 / 17 15.5
2017-Feb-20 09:51N 36°42' W 127°18'1313.1 200 / 20 15.4
2017-Feb-20 08:52N 36°54' W 127°12'8 7.7 230 / 20 15.5
2017-Feb-20 07:52N 37°00' W 127°06'8 7.8 230 / 17 15.7
2017-Feb-20 06:53N 37°06' W 127°00'8 7.8 230 / 20 15.8 12.3
2017-Feb-20 05:54N 37°12' W 126°54'6 6.1 200 / 21 15.5 12.4
2017-Feb-20 04:55N 37°18' W 126°54'8 7.8 200 / 18 15.2 12.5
2017-Feb-20 03:56N 37°24' W 126°48'1313.1 160 / 22 14.1 12.4
2017-Feb-20 02:57N 37°36' W 126°42'8 7.8 150 / 20 12.6 12.2
2017-Feb-20 01:58N 37°42' W 126°36'1112.3 140 / 13 13.0 12.3
2017-Feb-20 01:04N 37°52' W 126°31'447.2
2017-Feb-20 00:59N 37°48' W 126°30'1515.5 160 / 10 13.2 12.4
2017-Feb-20 00:00N 38°00' W 126°18'1310.6 210 / 91004.9 5.4 11.911.0-12.4
2017-Feb-19 22:47N 38°12' W 126°24'8 7.8 250 / 7 13.6
2017-Feb-19 21:48N 38°18' W 126°18'1212.0 280 / 9 13.2
2017-Feb-19 20:48N 38°30' W 126°18'1212.2 290 / 9 13.6
2017-Feb-19 19:49N 38°42' W 126°18'1212.2 300 / 9 13.2
2017-Feb-19 18:50N 38°54' W 126°18'6 6.1 300 / 9 13.1
2017-Feb-19 17:51N 39°00' W 126°18'1212.2 290 / 8 12.8
2017-Feb-19 16:52N 39°12' W 126°18'8 7.7 290 / 2 11.9
2017-Feb-19 15:53N 39°18' W 126°12'1212.2 250 / 9 11.3
2017-Feb-19 14:54N 39°30' W 126°12'1212.2 250 / 11 12.1
2017-Feb-19 13:55N 39°42' W 126°12'6 6.0 240 / 11 12.3
2017-Feb-19 12:55N 39°48' W 126°12'8 8.3 230 / 11 12.1
2017-Feb-19 12:00N 39°54' W 126°06'569.0 240 / 151001.0 5.4 10.610.2-11.5
2017-Feb-19 11:56N 39°54' W 126°12'1212.2 240 / 13 12.0
2017-Feb-19 10:57N 40°06' W 126°12'8 7.7 240 / 18 12.2
2017-Feb-19 09:58N 40°12' W 126°06'1212.2 250 / 14 12.4
2017-Feb-19 08:59N 40°24' W 126°06'6 6.1 240 / 14 12.2
2017-Feb-19 08:00N 40°30' W 126°06'12 9.6 240 / 14 12.1
2017-Feb-19 06:45N 40°42' W 126°06'1212.2 240 / 16 11.6
2017-Feb-19 05:46N 40°54' W 126°06'6 6.1 180 / 10 10.8
2017-Feb-19 04:47N 41°00' W 126°06'1313.0 180 / 23 10.5
2017-Feb-19 03:48N 41°12' W 126°00'6 6.0 180 / 21 9.8
2017-Feb-19 02:48N 41°18' W 126°00'1212.2 180 / 20 9.4
2017-Feb-19 01:49N 41°30' W 126°00'1212.2 190 / 17 9.3
2017-Feb-19 00:50N 41°42' W 126°00'7 9.0 220 / 17 8.9
2017-Feb-19 00:00N 41°48' W 125°54'1210.6 230 / 20999.9 2.2 7.9 3.7-11.3
2017-Feb-18 22:52N 42°00' W 125°54'6 6.1 250 / 9 9.5
2017-Feb-18 21:53N 42°06' W 125°54'1212.2 260 / 3 9.6
2017-Feb-18 20:54N 42°18' W 125°54'1212.2 070 / 2 10.0
2017-Feb-18 19:55N 42°30' W 125°54'1212.2 260 / 3 9.5
2017-Feb-18 18:56N 42°42' W 125°54'   320 / 10 10.5

Dump ship's entire track history